Time;durP1;ratioP1;P1;durP2;ratioP2;P2;SDS_P1;SDS_P2;PMS_P1;PMS_P2;Temp;Humidity;BMP_temperature;BMP_pressure;BME280_temperature;BME280_humidity;BME280_pressure;Samples;Min_cycle;Max_cycle;Signal;HPM_P1;HPM_P2
2023/02/26 00:01:27;;;;;;;1.80;1.40;;;;;;;;;;104668;1263;60585;-51
2023/02/26 00:03:56;;;;;;;1.30;1.20;;;;;;;;;;104982;1264;59136;-51
2023/02/26 00:06:24;;;;;;;2.20;1.10;;;;;;;;;;104753;1266;60441;-49
2023/02/26 00:08:54;;;;;;;1.60;1.00;;;;;;;;;;105139;1260;59140;-48
2023/02/26 00:11:22;;;;;;;1.60;1.00;;;;;;;;;;108712;1261;58025;-50
2023/02/26 00:13:54;;;;;;;1.40;1.00;;;;;;;;;;104710;1263;59111;-51
2023/02/26 00:16:25;;;;;;;2.50;1.10;;;;;;;;;;107308;1260;58872;-51
2023/02/26 00:18:53;;;;;;;3.30;1.10;;;;;;;;;;106783;1263;61200;-51
2023/02/26 00:21:21;;;;;;;1.40;1.20;;;;;;;;;;105029;1261;59688;-50
2023/02/26 00:23:50;;;;;;;1.70;1.20;;;;;;;;;;106028;1262;59544;-51
2023/02/26 00:26:23;;;;;;;1.20;0.90;;;;;;;;;;106412;1261;60341;-50
2023/02/26 00:28:51;;;;;;;1.30;0.90;;;;;;;;;;105303;1263;59023;-52
2023/02/26 00:31:23;;;;;;;2.20;0.80;;;;;;;;;;104846;1261;60586;-53
2023/02/26 00:33:52;;;;;;;1.40;1.00;;;;;;;;;;104655;1266;59676;-51
2023/02/26 00:36:21;;;;;;;1.10;0.80;;;;;;;;;;104820;1263;60035;-51
2023/02/26 00:38:56;;;;;;;1.20;0.90;;;;;;;;;;105596;1256;61604;-52
2023/02/26 00:41:24;;;;;;;1.10;0.80;;;;;;;;;;105075;1260;59663;-50
2023/02/26 00:43:52;;;;;;;1.50;0.80;;;;;;;;;;108709;1254;60789;-52
2023/02/26 00:46:21;;;;;;;1.00;0.80;;;;;;;;;;108593;1254;59157;-52
2023/02/26 00:48:51;;;;;;;0.90;0.80;;;;;;;;;;105581;1257;60100;-51
2023/02/26 00:51:38;;;;;;;1.50;1.10;;;;;;;;;;105248;1254;61160;-51
2023/02/26 00:54:32;;;;;;;1.30;1.10;;;;;;;;;;105148;1254;59868;-51
2023/02/26 00:57:03;;;;;;;1.00;0.80;;;;;;;;;;105429;1257;60880;-51
2023/02/26 00:59:31;;;;;;;1.60;0.80;;;;;;;;;;105204;1257;59723;-52
2023/02/26 01:02:01;;;;;;;1.00;0.60;;;;;;;;;;109215;1253;57643;-52
2023/02/26 01:04:29;;;;;;;1.10;0.80;;;;;;;;;;108726;1254;60412;-51
2023/02/26 01:06:58;;;;;;;1.10;0.90;;;;;;;;;;105368;1254;59727;-50
2023/02/26 01:09:29;;;;;;;1.00;0.80;;;;;;;;;;104887;1254;60765;-51
2023/02/26 01:12:00;;;;;;;1.20;0.80;;;;;;;;;;104741;1254;59720;-50
2023/02/26 01:14:30;;;;;;;1.70;1.10;;;;;;;;;;106887;1257;59658;-50
2023/02/26 01:16:59;;;;;;;1.20;0.80;;;;;;;;;;105166;1254;61239;-51
2023/02/26 01:19:40;;;;;;;1.20;0.80;;;;;;;;;;109284;1254;57701;-51
2023/02/26 01:22:32;;;;;;;1.00;0.80;;;;;;;;;;105383;1254;59972;-50
2023/02/26 01:25:01;;;;;;;1.50;0.90;;;;;;;;;;105295;1260;59742;-52
2023/02/26 01:27:29;;;;;;;1.50;0.90;;;;;;;;;;105541;1255;59720;-50
2023/02/26 01:29:57;;;;;;;1.00;0.80;;;;;;;;;;107281;1254;61334;-49
2023/02/26 01:32:26;;;;;;;1.20;0.90;;;;;;;;;;109257;1254;57593;-49
2023/02/26 01:34:55;;;;;;;1.40;0.90;;;;;;;;;;106360;1254;60860;-49
2023/02/26 01:37:42;;;;;;;1.60;0.90;;;;;;;;;;105617;1255;59723;-49
2023/02/26 01:40:16;;;;;;;1.80;0.70;;;;;;;;;;105387;1254;59624;-50
2023/02/26 01:42:45;;;;;;;1.20;0.90;;;;;;;;;;105399;1257;61374;-49
2023/02/26 01:45:15;;;;;;;2.30;0.80;;;;;;;;;;105349;1254;60399;-51
2023/02/26 01:47:45;;;;;;;0.80;0.60;;;;;;;;;;105293;1254;60425;-51
2023/02/26 01:50:14;;;;;;;1.20;0.70;;;;;;;;;;105389;1254;59702;-49
2023/02/26 01:52:48;;;;;;;4.10;0.80;;;;;;;;;;105380;1260;59616;-49
2023/02/26 01:55:20;;;;;;;1.00;0.70;;;;;;;;;;105380;1254;61384;-48
2023/02/26 01:57:51;;;;;;;3.40;1.20;;;;;;;;;;106028;1261;59695;-48
2023/02/26 02:00:20;;;;;;;0.80;0.70;;;;;;;;;;105292;1254;59736;-47
2023/02/26 02:02:48;;;;;;;1.20;0.80;;;;;;;;;;105140;1256;61193;-47
2023/02/26 02:05:23;;;;;;;2.80;0.70;;;;;;;;;;109132;1253;57599;-51
2023/02/26 02:07:52;;;;;;;0.90;0.70;;;;;;;;;;105234;1254;60048;-49
2023/02/26 02:10:19;;;;;;;2.40;0.80;;;;;;;;;;105161;1261;59796;-49
2023/02/26 02:13:06;;;;;;;1.20;0.60;;;;;;;;;;105170;1255;60977;-48
2023/02/26 02:15:34;;;;;;;0.90;0.70;;;;;;;;;;105135;1260;59618;-49
2023/02/26 02:18:16;;;;;;;1.00;0.80;;;;;;;;;;105513;1255;59759;-50
2023/02/26 02:20:48;;;;;;;0.70;0.70;;;;;;;;;;105151;1254;61551;-48
2023/02/26 02:23:16;;;;;;;1.20;0.70;;;;;;;;;;105355;1254;59676;-48
2023/02/26 02:25:53;;;;;;;0.80;0.70;;;;;;;;;;106185;1254;60455;-49
2023/02/26 02:28:44;;;;;;;0.70;0.60;;;;;;;;;;105765;1255;59625;-46
2023/02/26 02:31:12;;;;;;;0.90;0.60;;;;;;;;;;105211;1257;59615;-49
2023/02/26 02:33:46;;;;;;;;;;;;;;;;;;105049;1254;61511;-49
2023/02/26 02:36:16;;;;;;;2.30;0.80;;;;;;;;;;105211;1254;59662;-46
2023/02/26 02:38:46;;;;;;;0.90;0.70;;;;;;;;;;105392;1255;60727;-49
2023/02/26 02:41:26;;;;;;;1.00;0.60;;;;;;;;;;105033;1254;59623;-49
2023/02/26 02:43:54;;;;;;;1.20;0.60;;;;;;;;;;105063;1255;60287;-48
2023/02/26 02:46:26;;;;;;;2.20;0.60;;;;;;;;;;105424;1255;61505;-49
2023/02/26 02:49:02;;;;;;;0.80;0.60;;;;;;;;;;105603;1254;60101;-49
2023/02/26 02:51:34;;;;;;;0.80;0.70;;;;;;;;;;105259;1254;59654;-49
2023/02/26 02:54:07;;;;;;;0.90;0.60;;;;;;;;;;105091;1254;61164;-48
2023/02/26 02:56:55;;;;;;;0.90;0.70;;;;;;;;;;105130;1254;59588;-46
2023/02/26 02:59:31;;;;;;;0.80;0.50;;;;;;;;;;105378;1259;61066;-48
2023/02/26 03:02:02;;;;;;;1.20;0.70;;;;;;;;;;107013;1254;59738;-49
2023/02/26 03:04:30;;;;;;;1.80;0.70;;;;;;;;;;105280;1254;59738;-49
2023/02/26 03:06:58;;;;;;;3.20;0.80;;;;;;;;;;105156;1263;59644;-46
2023/02/26 03:09:28;;;;;;;0.70;0.60;;;;;;;;;;104849;1255;59603;-47
2023/02/26 03:11:56;;;;;;;0.70;0.60;;;;;;;;;;105445;1255;61740;-48
2023/02/26 03:14:25;;;;;;;0.60;0.60;;;;;;;;;;105201;1257;59643;-49
2023/02/26 03:16:57;;;;;;;1.20;0.70;;;;;;;;;;105271;1254;59703;-48
2023/02/26 03:19:48;;;;;;;2.20;0.70;;;;;;;;;;105152;1255;59727;-48
2023/02/26 03:22:22;;;;;;;1.40;0.70;;;;;;;;;;105164;1254;59724;-49
2023/02/26 03:25:09;;;;;;;1.00;0.80;;;;;;;;;;105308;1259;62552;-48
2023/02/26 03:27:49;;;;;;;1.30;0.70;;;;;;;;;;105099;1259;59627;-49
2023/02/26 03:30:25;;;;;;;0.90;0.70;;;;;;;;;;105166;1255;60889;-47
2023/02/26 03:33:01;;;;;;;2.80;0.60;;;;;;;;;;105352;1255;59567;-48
2023/02/26 03:35:30;;;;;;;1.20;0.60;;;;;;;;;;106545;1257;59857;-48
2023/02/26 03:38:00;;;;;;;0.90;0.60;;;;;;;;;;105282;1254;61442;-48
2023/02/26 03:40:29;;;;;;;1.10;0.60;;;;;;;;;;106249;1257;59617;-49
2023/02/26 03:42:59;;;;;;;1.20;0.80;;;;;;;;;;105435;1260;60766;-48
2023/02/26 03:45:32;;;;;;;0.90;0.60;;;;;;;;;;105475;1260;59704;-48
2023/02/26 03:48:01;;;;;;;3.40;0.70;;;;;;;;;;105900;1254;59743;-48
2023/02/26 03:50:37;;;;;;;1.40;0.70;;;;;;;;;;105651;1259;61029;-48
2023/02/26 03:53:23;;;;;;;1.10;0.60;;;;;;;;;;105125;1255;59992;-48
2023/02/26 03:56:01;;;;;;;1.30;0.80;;;;;;;;;;105238;1259;60884;-49
2023/02/26 03:59:04;;;;;;;0.80;0.60;;;;;;;;;;105922;1260;59856;-47
2023/02/26 04:01:52;;;;;;;0.90;0.60;;;;;;;;;;105258;1255;59558;-47
2023/02/26 04:04:22;;;;;;;1.10;0.50;;;;;;;;;;105191;1260;61269;-49
2023/02/26 04:06:52;;;;;;;2.10;0.70;;;;;;;;;;106157;1258;59755;-48
2023/02/26 04:09:20;;;;;;;0.90;0.70;;;;;;;;;;105137;1254;60439;-48
2023/02/26 04:11:49;;;;;;;1.00;0.70;;;;;;;;;;105235;1260;60422;-49
2023/02/26 04:14:18;;;;;;;2.40;0.70;;;;;;;;;;107438;1253;60556;-48
2023/02/26 04:16:46;;;;;;;3.30;0.60;;;;;;;;;;108275;1255;61938;-49
2023/02/26 04:19:14;;;;;;;0.80;0.80;;;;;;;;;;105491;1260;60447;-48
2023/02/26 04:21:45;;;;;;;0.90;0.80;;;;;;;;;;105604;1257;60545;-47
2023/02/26 04:24:14;;;;;;;1.10;0.70;;;;;;;;;;109323;1254;59340;-49
2023/02/26 04:26:44;;;;;;;2.80;0.60;;;;;;;;;;107108;1256;60630;-48
2023/02/26 04:29:13;;;;;;;1.00;0.70;;;;;;;;;;105719;1254;60795;-47
2023/02/26 04:31:42;;;;;;;1.30;0.70;;;;;;;;;;107028;1252;60293;-49
2023/02/26 04:34:10;;;;;;;0.80;0.60;;;;;;;;;;107791;1254;60756;-48
2023/02/26 04:36:39;;;;;;;0.90;0.70;;;;;;;;;;105613;1257;60446;-48
2023/02/26 04:39:09;;;;;;;1.00;0.80;;;;;;;;;;105437;1260;60334;-47
2023/02/26 04:41:37;;;;;;;2.40;0.70;;;;;;;;;;109231;1254;62131;-48
2023/02/26 04:44:06;;;;;;;1.10;0.70;;;;;;;;;;106816;1252;60533;-46
2023/02/26 04:46:36;;;;;;;1.10;0.80;;;;;;;;;;105809;1257;60520;-45
2023/02/26 04:49:04;;;;;;;0.90;0.80;;;;;;;;;;105356;1255;60510;-47
2023/02/26 04:51:37;;;;;;;1.10;0.80;;;;;;;;;;109243;1257;58497;-48
2023/02/26 04:54:07;;;;;;;2.60;0.80;;;;;;;;;;105813;1252;61651;-48
2023/02/26 04:56:37;;;;;;;0.80;0.60;;;;;;;;;;105554;1254;60523;-48
2023/02/26 04:59:06;;;;;;;0.90;0.70;;;;;;;;;;109122;1253;60791;-47
2023/02/26 05:01:34;;;;;;;0.90;0.60;;;;;;;;;;105489;1256;60443;-48
2023/02/26 05:04:04;;;;;;;1.00;0.70;;;;;;;;;;106078;1257;60530;-45
2023/02/26 05:06:32;;;;;;;2.30;0.90;;;;;;;;;;105754;1257;63145;-47
2023/02/26 05:09:04;;;;;;;1.00;0.80;;;;;;;;;;105367;1256;60586;-48
2023/02/26 05:11:32;;;;;;;0.80;0.70;;;;;;;;;;105830;1256;60782;-48
2023/02/26 05:14:00;;;;;;;1.80;0.90;;;;;;;;;;105422;1257;60419;-47
2023/02/26 05:16:31;;;;;;;1.10;0.80;;;;;;;;;;105479;1257;60483;-46
2023/02/26 05:18:59;;;;;;;1.10;0.80;;;;;;;;;;105364;1257;62445;-47
2023/02/26 05:21:28;;;;;;;2.20;1.00;;;;;;;;;;105633;1257;60460;-47
2023/02/26 05:23:56;;;;;;;1.40;0.90;;;;;;;;;;105512;1260;60740;-46
2023/02/26 05:26:25;;;;;;;2.90;0.90;;;;;;;;;;105278;1258;60533;-48
2023/02/26 05:28:55;;;;;;;1.20;0.80;;;;;;;;;;105342;1254;60514;-47
2023/02/26 05:31:25;;;;;;;1.10;0.80;;;;;;;;;;105691;1254;61955;-48
2023/02/26 05:33:54;;;;;;;1.60;1.00;;;;;;;;;;106379;1261;59959;-49
2023/02/26 05:36:22;;;;;;;2.60;0.90;;;;;;;;;;105410;1254;60798;-47
2023/02/26 05:38:52;;;;;;;1.10;0.90;;;;;;;;;;105426;1252;60530;-45
2023/02/26 05:41:21;;;;;;;1.20;0.80;;;;;;;;;;106030;1254;60754;-49
2023/02/26 05:43:51;;;;;;;1.30;0.90;;;;;;;;;;105365;1252;60348;-48
2023/02/26 05:46:19;;;;;;;1.30;0.90;;;;;;;;;;106515;1256;60425;-47
2023/02/26 05:48:50;;;;;;;1.40;0.90;;;;;;;;;;105558;1254;60332;-48
2023/02/26 05:51:18;;;;;;;1.20;0.80;;;;;;;;;;105539;1252;60508;-48
2023/02/26 05:53:48;;;;;;;2.40;0.90;;;;;;;;;;106331;1254;60443;-44
2023/02/26 05:56:16;;;;;;;1.00;0.80;;;;;;;;;;108168;1256;62911;-49
2023/02/26 05:58:46;;;;;;;2.00;1.00;;;;;;;;;;105706;1258;60354;-48
2023/02/26 06:01:14;;;;;;;1.00;0.80;;;;;;;;;;105998;1256;60716;-48
2023/02/26 06:03:43;;;;;;;0.90;0.70;;;;;;;;;;105321;1265;60520;-48
2023/02/26 06:06:13;;;;;;;1.20;0.90;;;;;;;;;;105255;1255;60334;-47
2023/02/26 06:08:40;;;;;;;1.60;0.80;;;;;;;;;;105709;1256;61169;-49
2023/02/26 06:11:08;;;;;;;1.10;0.80;;;;;;;;;;105286;1254;60504;-49
2023/02/26 06:13:37;;;;;;;1.00;0.80;;;;;;;;;;106466;1257;60762;-49
2023/02/26 06:16:05;;;;;;;1.40;0.90;;;;;;;;;;106119;1260;60549;-47
2023/02/26 06:18:33;;;;;;;1.50;0.90;;;;;;;;;;105605;1254;59424;-49
2023/02/26 06:21:01;;;;;;;1.30;1.00;;;;;;;;;;105363;1260;61965;-47
2023/02/26 06:23:29;;;;;;;1.30;0.90;;;;;;;;;;105530;1254;60555;-48
2023/02/26 06:25:58;;;;;;;2.40;0.90;;;;;;;;;;105948;1254;61069;-48
2023/02/26 06:28:29;;;;;;;1.70;1.10;;;;;;;;;;105634;1256;60491;-48
2023/02/26 06:30:57;;;;;;;1.70;1.10;;;;;;;;;;105444;1256;60355;-48
2023/02/26 06:33:25;;;;;;;1.60;0.90;;;;;;;;;;105295;1257;61826;-47
2023/02/26 06:35:54;;;;;;;1.40;0.90;;;;;;;;;;105659;1258;60431;-49
2023/02/26 06:38:23;;;;;;;1.70;1.30;;;;;;;;;;105611;1256;60409;-49
2023/02/26 06:40:51;;;;;;;1.40;0.90;;;;;;;;;;108071;1256;60612;-49
2023/02/26 06:43:21;;;;;;;2.20;1.50;;;;;;;;;;106846;1258;60414;-48
2023/02/26 06:45:49;;;;;;;1.80;1.10;;;;;;;;;;105382;1257;62227;-49
2023/02/26 06:48:17;;;;;;;1.40;1.00;;;;;;;;;;105625;1257;60578;-49
2023/02/26 06:50:45;;;;;;;2.00;1.30;;;;;;;;;;106513;1254;60931;-48
2023/02/26 06:53:13;;;;;;;4.10;0.90;;;;;;;;;;105891;1256;60422;-48
2023/02/26 06:55:45;;;;;;;1.60;1.10;;;;;;;;;;105205;1257;60357;-49
2023/02/26 06:58:15;;;;;;;2.00;1.50;;;;;;;;;;109325;1254;61632;-49
2023/02/26 07:00:43;;;;;;;1.40;1.00;;;;;;;;;;108106;1254;60462;-48
2023/02/26 07:03:12;;;;;;;1.30;1.00;;;;;;;;;;105306;1254;60726;-50
2023/02/26 07:05:41;;;;;;;1.60;1.00;;;;;;;;;;105285;1253;60481;-49
2023/02/26 07:08:10;;;;;;;1.90;1.20;;;;;;;;;;109323;1253;58497;-49
2023/02/26 07:10:39;;;;;;;1.50;1.30;;;;;;;;;;107328;1254;62111;-48
2023/02/26 07:13:07;;;;;;;1.60;1.10;;;;;;;;;;105282;1258;60730;-51
2023/02/26 07:15:36;;;;;;;2.70;1.00;;;;;;;;;;105741;1257;60712;-49
2023/02/26 07:18:06;;;;;;;4.60;1.10;;;;;;;;;;105483;1254;60337;-50
2023/02/26 07:20:34;;;;;;;4.20;1.10;;;;;;;;;;105784;1256;60456;-51
2023/02/26 07:23:02;;;;;;;1.80;1.30;;;;;;;;;;105559;1263;62082;-49
2023/02/26 07:25:31;;;;;;;2.80;1.30;;;;;;;;;;105373;1254;60956;-52
2023/02/26 07:27:59;;;;;;;1.40;1.10;;;;;;;;;;105486;1258;60453;-49
2023/02/26 07:30:27;;;;;;;1.50;1.10;;;;;;;;;;105602;1265;60422;-53
2023/02/26 07:32:58;;;;;;;4.10;1.10;;;;;;;;;;105283;1259;62038;-52
2023/02/26 07:35:29;;;;;;;1.70;1.00;;;;;;;;;;105207;1252;62128;-52
2023/02/26 07:37:57;;;;;;;1.50;1.20;;;;;;;;;;105860;1257;59806;-52
2023/02/26 07:40:25;;;;;;;2.60;1.20;;;;;;;;;;108360;1256;60815;-51
2023/02/26 07:42:55;;;;;;;1.80;1.10;;;;;;;;;;105226;1256;61037;-52
2023/02/26 07:45:23;;;;;;;3.10;1.10;;;;;;;;;;107442;1256;58872;-50
2023/02/26 07:47:51;;;;;;;1.50;1.20;;;;;;;;;;105693;1256;62160;-49
2023/02/26 07:50:19;;;;;;;1.50;1.10;;;;;;;;;;105342;1257;60552;-51
2023/02/26 07:52:47;;;;;;;2.30;1.60;;;;;;;;;;105315;1254;60584;-51
2023/02/26 07:55:16;;;;;;;2.70;1.60;;;;;;;;;;105821;1256;60579;-52
2023/02/26 07:57:44;;;;;;;1.90;1.50;;;;;;;;;;105169;1252;60501;-51
2023/02/26 08:00:13;;;;;;;1.90;1.20;;;;;;;;;;105059;1254;62236;-48
2023/02/26 08:02:40;;;;;;;1.90;1.40;;;;;;;;;;109085;1254;59613;-53
2023/02/26 08:05:09;;;;;;;2.20;1.50;;;;;;;;;;108965;1254;60869;-52
2023/02/26 08:07:37;;;;;;;3.10;1.50;;;;;;;;;;105580;1257;60619;-49
2023/02/26 08:10:06;;;;;;;1.30;1.00;;;;;;;;;;105337;1257;60431;-52
2023/02/26 08:12:35;;;;;;;2.80;1.40;;;;;;;;;;108253;1256;62387;-51
2023/02/26 08:15:12;;;;;;;1.70;1.20;;;;;;;;;;105774;1258;60447;-51
2023/02/26 08:17:40;;;;;;;1.70;1.30;;;;;;;;;;106144;1256;60437;-51
2023/02/26 08:20:08;;;;;;;2.30;1.40;;;;;;;;;;105680;1257;61283;-51
2023/02/26 08:22:38;;;;;;;1.80;1.50;;;;;;;;;;105581;1251;61031;-49
2023/02/26 08:25:06;;;;;;;2.80;2.00;;;;;;;;;;105527;1249;62078;-50
2023/02/26 08:27:34;;;;;;;1.60;1.40;;;;;;;;;;105416;1253;60453;-52
2023/02/26 08:30:04;;;;;;;2.00;1.40;;;;;;;;;;105281;1251;60783;-52
2023/02/26 08:32:34;;;;;;;3.90;1.40;;;;;;;;;;105695;1254;60523;-52
2023/02/26 08:35:02;;;;;;;1.70;1.10;;;;;;;;;;105658;1254;60335;-52
2023/02/26 08:37:30;;;;;;;2.90;1.80;;;;;;;;;;105517;1254;61887;-52
2023/02/26 08:39:58;;;;;;;2.50;1.20;;;;;;;;;;107740;1250;58335;-52
2023/02/26 08:42:26;;;;;;;1.80;1.10;;;;;;;;;;106056;1250;61031;-52
2023/02/26 08:44:54;;;;;;;2.40;1.50;;;;;;;;;;105659;1254;60332;-51
2023/02/26 08:47:22;;;;;;;2.60;1.20;;;;;;;;;;109425;1250;58496;-53
2023/02/26 08:49:56;;;;;;;2.10;1.40;;;;;;;;;;105951;1254;62191;-48
2023/02/26 08:52:24;;;;;;;2.40;1.50;;;;;;;;;;105928;1254;60424;-52
2023/02/26 08:54:52;;;;;;;1.60;1.30;;;;;;;;;;105806;1251;60752;-51
2023/02/26 08:57:20;;;;;;;3.00;1.50;;;;;;;;;;105168;1251;60305;-52
2023/02/26 08:59:48;;;;;;;2.00;1.60;;;;;;;;;;105448;1252;60397;-52
2023/02/26 09:02:16;;;;;;;1.80;1.40;;;;;;;;;;106009;1250;62169;-51
2023/02/26 09:04:44;;;;;;;1.60;1.40;;;;;;;;;;105512;1253;60411;-52
2023/02/26 09:07:11;;;;;;;2.50;1.40;;;;;;;;;;105314;1254;61873;-48
2023/02/26 09:09:39;;;;;;;1.80;1.10;;;;;;;;;;105721;1253;60459;-50
2023/02/26 09:12:08;;;;;;;2.10;1.70;;;;;;;;;;105726;1254;60383;-49
2023/02/26 09:14:35;;;;;;;3.10;1.60;;;;;;;;;;105548;1254;62065;-52
2023/02/26 09:17:04;;;;;;;1.40;1.10;;;;;;;;;;109621;1251;58606;-53
2023/02/26 09:19:33;;;;;;;1.30;1.20;;;;;;;;;;107285;1251;60900;-50
2023/02/26 09:22:01;;;;;;;2.00;1.20;;;;;;;;;;105180;1251;60425;-52
2023/02/26 09:24:30;;;;;;;1.70;1.20;;;;;;;;;;105344;1251;60431;-52
2023/02/26 09:26:59;;;;;;;1.30;1.10;;;;;;;;;;107621;1251;62576;-50
2023/02/26 09:29:28;;;;;;;1.40;1.30;;;;;;;;;;105466;1253;60402;-50
2023/02/26 09:31:56;;;;;;;2.30;1.40;;;;;;;;;;105635;1251;61360;-50
2023/02/26 09:34:24;;;;;;;1.40;1.10;;;;;;;;;;108307;1253;60512;-51
2023/02/26 09:36:52;;;;;;;1.50;1.20;;;;;;;;;;106451;1251;60386;-48
2023/02/26 09:39:19;;;;;;;2.50;1.50;;;;;;;;;;105017;1250;61717;-51
2023/02/26 09:41:51;;;;;;;1.60;1.40;;;;;;;;;;106365;1253;60875;-50
2023/02/26 09:44:23;;;;;;;1.50;1.40;;;;;;;;;;105442;1251;60437;-51
2023/02/26 09:46:55;;;;;;;2.00;1.50;;;;;;;;;;105626;1251;60377;-50
2023/02/26 09:49:33;;;;;;;1.40;1.30;;;;;;;;;;105568;1250;60360;-51
2023/02/26 09:52:21;;;;;;;1.80;1.30;;;;;;;;;;105280;1251;62162;-52
2023/02/26 09:54:51;;;;;;;1.50;1.40;;;;;;;;;;105120;1254;60561;-53
2023/02/26 09:57:31;;;;;;;2.70;2.10;;;;;;;;;;105569;1251;60278;-51
2023/02/26 10:00:00;;;;;;;3.20;1.50;;;;;;;;;;105719;1250;60795;-51
2023/02/26 10:02:41;;;;;;;2.40;1.50;;;;;;;;;;109350;1250;58580;-51
2023/02/26 10:05:16;;;;;;;2.20;1.20;;;;;;;;;;106463;1255;61214;-50
2023/02/26 10:08:16;;;;;;;2.00;1.70;;;;;;;;;;105791;1254;60437;-52
2023/02/26 10:10:47;;;;;;;2.00;1.40;;;;;;;;;;105407;1251;61196;-51
2023/02/26 10:13:20;;;;;;;2.00;1.40;;;;;;;;;;105593;1251;60862;-51
2023/02/26 10:15:52;;;;;;;2.40;1.60;;;;;;;;;;105369;1251;60782;-50
2023/02/26 10:18:25;;;;;;;1.80;1.60;;;;;;;;;;105478;1251;62173;-51
2023/02/26 10:20:58;;;;;;;1.60;1.20;;;;;;;;;;105002;1251;60529;-51
2023/02/26 10:23:43;;;;;;;2.20;1.80;;;;;;;;;;105382;1253;60654;-52
2023/02/26 10:26:22;;;;;;;1.10;1.00;;;;;;;;;;105431;1251;60533;-52
2023/02/26 10:29:13;;;;;;;1.50;0.90;;;;;;;;;;109243;1249;58588;-52
2023/02/26 10:31:56;;;;;;;3.00;1.10;;;;;;;;;;105577;1251;62134;-52
2023/02/26 10:34:27;;;;;;;4.10;1.40;;;;;;;;;;105841;1254;60425;-52
2023/02/26 10:37:12;;;;;;;2.50;1.70;;;;;;;;;;105500;1251;60405;-51
2023/02/26 10:39:47;;;;;;;1.30;0.90;;;;;;;;;;106571;1251;60532;-50
2023/02/26 10:42:19;;;;;;;1.60;1.50;;;;;;;;;;105548;1251;60402;-50
2023/02/26 10:44:54;;;;;;;1.60;1.40;;;;;;;;;;105568;1256;62273;-50
2023/02/26 10:47:22;;;;;;;1.70;1.40;;;;;;;;;;109547;1250;58177;-53
2023/02/26 10:49:55;;;;;;;2.00;1.70;;;;;;;;;;106308;1251;61967;-51
2023/02/26 10:52:24;;;;;;;1.50;1.20;;;;;;;;;;105649;1253;60399;-51
2023/02/26 10:54:58;;;;;;;1.40;1.30;;;;;;;;;;105522;1250;60529;-48
2023/02/26 10:57:26;;;;;;;1.50;1.40;;;;;;;;;;105284;1252;62093;-51
2023/02/26 10:59:58;;;;;;;1.30;1.20;;;;;;;;;;107349;1254;58916;-50
2023/02/26 11:02:42;;;;;;;1.30;1.20;;;;;;;;;;105581;1250;65928;-51
2023/02/26 11:05:17;;;;;;;2.30;1.30;;;;;;;;;;105407;1254;60488;-49
2023/02/26 11:07:46;;;;;;;1.40;1.30;;;;;;;;;;105450;1253;60406;-51
2023/02/26 11:10:21;;;;;;;1.50;1.20;;;;;;;;;;105473;1250;61160;-51
2023/02/26 11:12:50;;;;;;;1.50;1.40;;;;;;;;;;105966;1256;60364;-50
2023/02/26 11:15:19;;;;;;;1.30;1.20;;;;;;;;;;107794;1250;61088;-50
2023/02/26 11:17:56;;;;;;;1.40;1.20;;;;;;;;;;105439;1257;60884;-51
2023/02/26 11:20:51;;;;;;;1.80;1.10;;;;;;;;;;105384;1254;60328;-51
2023/02/26 11:23:20;;;;;;;1.00;0.90;;;;;;;;;;109152;1251;61926;-51
2023/02/26 11:26:05;;;;;;;1.20;1.00;;;;;;;;;;105338;1250;60284;-51
2023/02/26 11:28:37;;;;;;;1.30;1.20;;;;;;;;;;105320;1250;60433;-49
2023/02/26 11:31:05;;;;;;;1.10;0.80;;;;;;;;;;105296;1254;60533;-51
2023/02/26 11:33:37;;;;;;;1.20;1.10;;;;;;;;;;105166;1250;60449;-50
2023/02/26 11:36:08;;;;;;;1.30;1.00;;;;;;;;;;105467;1250;62133;-52
2023/02/26 11:38:36;;;;;;;1.70;0.90;;;;;;;;;;105308;1251;60626;-51
2023/02/26 11:41:06;;;;;;;1.30;1.00;;;;;;;;;;105166;1254;60941;-52
2023/02/26 11:43:41;;;;;;;0.90;0.80;;;;;;;;;;106016;1251;60595;-50
2023/02/26 11:46:11;;;;;;;1.10;0.90;;;;;;;;;;105386;1249;60479;-51
2023/02/26 11:48:44;;;;;;;1.40;1.00;;;;;;;;;;105274;1251;61858;-51
2023/02/26 11:51:13;;;;;;;1.50;1.10;;;;;;;;;;105343;1252;61273;-52
2023/02/26 11:53:50;;;;;;;1.60;1.00;;;;;;;;;;106141;1250;60389;-51
2023/02/26 11:56:26;;;;;;;1.30;0.90;;;;;;;;;;105463;1253;60529;-49
2023/02/26 11:58:54;;;;;;;1.40;1.00;;;;;;;;;;105106;1254;60520;-51
2023/02/26 12:01:25;;;;;;;1.20;1.00;;;;;;;;;;105045;1250;61740;-51
2023/02/26 12:03:57;;;;;;;0.90;0.80;;;;;;;;;;104986;1250;60660;-52
2023/02/26 12:06:24;;;;;;;1.10;0.80;;;;;;;;;;105201;1253;60774;-52
2023/02/26 12:11:42;;;;;;;1.10;0.90;;;;;;;5.70;100.00;99020.02;102004;1292;601822;-52
2023/02/26 12:14:29;;;;;;;1.20;1.10;;;;;;;5.75;100.00;99046.20;104297;1267;59354;-51
2023/02/26 12:17:06;;;;;;;1.10;0.90;;;;;;;5.77;100.00;99039.00;104390;1267;60645;-47
2023/02/26 12:20:13;;;;;;;1.80;0.80;;;;;;;5.78;100.00;99037.88;104306;1267;73181;-51
2023/02/26 12:23:02;;;;;;;;;;;;;;;5.77;100.00;99045.77;104928;1266;66460;-51
2023/02/26 12:25:39;;;;;;;2.10;0.80;;;;;;;5.74;100.00;99044.45;104170;1265;211115;-52
2023/02/26 12:28:19;;;;;;;1.90;0.90;;;;;;;5.76;100.00;99040.30;107046;1263;59186;-51
2023/02/26 12:31:14;;;;;;;1.00;0.90;;;;;;;5.78;100.00;99050.55;104541;1264;61287;-51
2023/02/26 12:34:07;;;;;;;1.30;0.80;;;;;;;5.81;100.00;99054.69;104500;1266;70561;-52
2023/02/26 12:37:11;;;;;;;1.10;0.90;;;;;;;5.81;100.00;99047.55;104623;1266;66303;-51
2023/02/26 12:40:07;;;;;;;3.20;0.90;;;;;;;5.82;100.00;99041.81;104553;1263;73678;-51
2023/02/26 12:42:46;;;;;;;1.90;0.80;;;;;;;5.86;100.00;99041.86;104484;1262;61213;-52
2023/02/26 12:45:34;;;;;;;2.50;0.90;;;;;;;5.90;100.00;99041.33;108541;1264;61073;-51
2023/02/26 12:48:14;;;;;;;1.10;0.90;;;;;;;5.93;100.00;99040.51;106104;1265;72785;-51
2023/02/26 12:51:06;;;;;;;1.10;0.80;;;;;;;5.97;100.00;99045.16;104326;1268;66239;-52
2023/02/26 12:57:06;;;;;;;1.20;0.80;;;;;;;5.92;100.00;99050.70;102045;1292;600516;-51
2023/02/26 12:59:43;;;;;;;3.30;0.90;;;;;;;5.91;100.00;99074.42;104299;1267;60584;-52
2023/02/26 13:02:17;;;;;;;1.20;0.90;;;;;;;5.90;100.00;99072.31;104400;1267;59263;-51
2023/02/26 13:04:57;;;;;;;1.60;0.90;;;;;;;5.89;100.00;99063.45;104524;1266;72513;-52
2023/02/26 13:07:48;;;;;;;1.50;1.10;;;;;;;5.86;100.00;99062.50;104224;1269;67287;-53
2023/02/26 13:10:38;;;;;;;1.70;1.10;;;;;;;5.84;100.00;99076.63;104449;1264;121674;-50
2023/02/26 13:13:09;;;;;;;1.10;1.00;;;;;;;5.82;100.00;99082.08;107073;1264;59463;-52
2023/02/26 13:15:52;;;;;;;1.10;0.90;;;;;;;5.77;100.00;99084.05;104179;1264;59993;-54
2023/02/26 13:18:30;;;;;;;2.80;1.10;;;;;;;5.76;100.00;99081.60;104356;1263;72529;-51
2023/02/26 13:21:04;;;;;;;1.50;0.90;;;;;;;5.76;100.00;99082.48;104203;1264;67573;-52
2023/02/26 13:23:36;;;;;;;2.30;1.10;;;;;;;5.78;100.00;99088.64;106587;1262;71711;-53
2023/02/26 13:26:07;;;;;;;1.50;0.90;;;;;;;5.80;100.00;99089.80;106563;1263;62717;-52
2023/02/26 13:28:58;;;;;;;2.20;0.90;;;;;;;5.79;100.00;99094.65;104600;1263;60696;-53
2023/02/26 13:31:51;;;;;;;0.80;0.70;;;;;;;5.79;100.00;99102.10;104474;1264;72413;-53
2023/02/26 13:34:40;;;;;;;1.30;0.80;;;;;;;5.81;100.00;99105.76;106900;1264;66357;-51
2023/02/26 13:37:30;;;;;;;0.90;0.80;;;;;;;5.82;100.00;99105.38;105453;1263;72868;-53
2023/02/26 13:40:49;;;;;;;1.50;1.00;;;;;;;5.83;100.00;99104.11;104685;1263;61290;-51
2023/02/26 13:43:36;;;;;;;1.10;0.90;;;;;;;5.84;100.00;99110.30;104221;1264;59750;-48
2023/02/26 13:46:23;;;;;;;1.60;1.00;;;;;;;5.84;100.00;99113.67;105493;1263;72242;-49
2023/02/26 13:49:06;;;;;;;1.40;1.00;;;;;;;5.83;100.00;99118.87;104685;1264;64947;-52
2023/02/26 13:51:35;;;;;;;1.40;0.90;;;;;;;5.80;100.00;99120.23;104378;1264;73779;-52
2023/02/26 13:54:27;;;;;;;1.60;0.90;;;;;;;5.78;100.00;99119.41;105129;1263;59579;-51
2023/02/26 13:57:25;;;;;;;1.30;1.20;;;;;;;5.76;100.00;99118.63;104381;1263;59693;-52
2023/02/26 13:59:54;;;;;;;1.10;0.80;;;;;;;5.73;100.00;99122.10;104210;1264;71234;-52
2023/02/26 14:02:46;;;;;;;1.00;0.80;;;;;;;5.70;100.00;99127.02;104129;1264;67821;-52
2023/02/26 14:05:32;;;;;;;1.40;1.00;;;;;;;5.68;100.00;99125.88;105222;1264;73406;-51
2023/02/26 14:08:00;;;;;;;1.30;0.80;;;;;;;5.66;100.00;99129.49;104489;1265;61099;-51
2023/02/26 14:10:31;;;;;;;1.00;0.80;;;;;;;5.67;100.00;99129.11;105187;1263;59644;-51
2023/02/26 14:13:10;;;;;;;1.00;0.80;;;;;;;5.68;100.00;99132.81;104210;1263;71886;-50
2023/02/26 14:15:42;;;;;;;1.20;0.90;;;;;;;5.68;100.00;99135.84;104497;1263;68089;-52
2023/02/26 14:18:39;;;;;;;1.10;0.80;;;;;;;5.67;100.00;99137.66;107640;1263;73426;-50
2023/02/26 14:21:30;;;;;;;1.30;0.90;;;;;;;5.66;100.00;99144.44;106416;1264;59729;-49
2023/02/26 14:24:24;;;;;;;1.40;1.00;;;;;;;5.66;100.00;99156.02;104431;1264;61188;-50
2023/02/26 14:27:11;;;;;;;1.90;1.00;;;;;;;5.66;100.00;99166.36;107828;1264;72580;-52
2023/02/26 14:29:56;;;;;;;4.50;1.40;;;;;;;5.65;100.00;99166.92;106613;1264;66651;-51
2023/02/26 14:32:33;;;;;;;1.60;1.20;;;;;;;5.63;100.00;99168.77;104373;1263;71719;-49
2023/02/26 14:35:09;;;;;;;1.70;1.20;;;;;;;5.62;100.00;99165.41;104706;1269;59632;-51
2023/02/26 14:37:41;;;;;;;1.30;0.90;;;;;;;5.60;100.00;99168.34;105372;1270;61701;-52